sensor_id;sensor_type;location;lat;lon;timestamp;pressure;altitude;pressure_sealevel;temperature;humidity
61528;BME280;47395;42.032;-8.634;2024-03-17T00:00:22;75779.59;;;-148.63;41.56
61528;BME280;47395;42.032;-8.634;2024-03-17T00:02:23;75835.59;;;-148.63;42.21
61528;BME280;47395;42.032;-8.634;2024-03-17T00:04:24;75799.59;;;-148.63;41.79
61528;BME280;47395;42.032;-8.634;2024-03-17T00:06:25;75777.59;;;-148.63;41.33
61528;BME280;47395;42.032;-8.634;2024-03-17T00:08:26;75803.59;;;-148.63;41.56
61528;BME280;47395;42.032;-8.634;2024-03-17T00:10:27;75789.59;;;-148.63;41.32
61528;BME280;47395;42.032;-8.634;2024-03-17T00:12:28;75817.59;;;-148.63;41.36
61528;BME280;47395;42.032;-8.634;2024-03-17T00:14:29;75785.59;;;-148.63;41.23
61528;BME280;47395;42.032;-8.634;2024-03-17T00:16:29;75801.59;;;-148.63;41.22
61528;BME280;47395;42.032;-8.634;2024-03-17T00:18:30;75733.56;;;-148.63;40.20
61528;BME280;47395;42.032;-8.634;2024-03-17T00:20:31;75801.59;;;-148.63;41.14
61528;BME280;47395;42.032;-8.634;2024-03-17T00:22:32;75825.59;;;-148.63;41.42
61528;BME280;47395;42.032;-8.634;2024-03-17T00:24:37;75817.59;;;-148.63;41.56
61528;BME280;47395;42.032;-8.634;2024-03-17T00:26:38;75811.59;;;-148.63;41.57
61528;BME280;47395;42.032;-8.634;2024-03-17T00:28:39;75807.59;;;-148.63;41.60
61528;BME280;47395;42.032;-8.634;2024-03-17T00:30:40;75855.63;;;-148.63;41.89
61528;BME280;47395;42.032;-8.634;2024-03-17T00:32:42;75741.56;;;-148.63;40.85
61528;BME280;47395;42.032;-8.634;2024-03-17T00:34:43;75705.56;;;-148.63;40.18
61528;BME280;47395;42.032;-8.634;2024-03-17T00:36:43;75805.59;;;-148.63;41.34
61528;BME280;47395;42.032;-8.634;2024-03-17T00:38:44;75709.56;;;-148.63;40.39
61528;BME280;47395;42.032;-8.634;2024-03-17T00:40:45;75699.56;;;-148.63;40.22
61528;BME280;47395;42.032;-8.634;2024-03-17T00:42:48;75627.53;;;-148.63;39.50
61528;BME280;47395;42.032;-8.634;2024-03-17T00:44:49;75705.56;;;-148.63;40.17
61528;BME280;47395;42.032;-8.634;2024-03-17T00:46:50;75593.53;;;-148.63;39.10
61528;BME280;47395;42.032;-8.634;2024-03-17T00:48:51;75613.53;;;-148.63;39.26
61528;BME280;47395;42.032;-8.634;2024-03-17T00:50:56;75581.53;;;-148.63;39.07
61528;BME280;47395;42.032;-8.634;2024-03-17T00:52:57;75785.59;;;-148.63;41.16
61528;BME280;47395;42.032;-8.634;2024-03-17T00:54:58;75753.56;;;-148.63;41.13
61528;BME280;47395;42.032;-8.634;2024-03-17T00:56:59;75805.59;;;-148.63;41.59
61528;BME280;47395;42.032;-8.634;2024-03-17T00:59:00;75805.59;;;-148.63;41.79
61528;BME280;47395;42.032;-8.634;2024-03-17T01:01:00;75845.59;;;-148.63;42.19
61528;BME280;47395;42.032;-8.634;2024-03-17T01:03:02;75791.59;;;-148.63;41.72
61528;BME280;47395;42.032;-8.634;2024-03-17T01:05:03;75865.63;;;-148.63;42.64
61528;BME280;47395;42.032;-8.634;2024-03-17T01:07:06;75807.59;;;-148.63;41.98
61528;BME280;47395;42.032;-8.634;2024-03-17T01:09:07;75813.59;;;-148.63;42.07
61528;BME280;47395;42.032;-8.634;2024-03-17T01:11:14;75809.59;;;-148.63;41.99
61528;BME280;47395;42.032;-8.634;2024-03-17T01:13:15;75757.56;;;-148.63;41.18
61528;BME280;47395;42.032;-8.634;2024-03-17T01:15:16;75711.56;;;-148.63;40.45
61528;BME280;47395;42.032;-8.634;2024-03-17T01:17:17;75729.56;;;-148.63;41.06
61528;BME280;47395;42.032;-8.634;2024-03-17T01:19:19;75731.56;;;-148.63;40.81
61528;BME280;47395;42.032;-8.634;2024-03-17T01:21:20;75675.56;;;-148.63;40.08
61528;BME280;47395;42.032;-8.634;2024-03-17T01:23:22;75767.59;;;-148.63;41.13
61528;BME280;47395;42.032;-8.634;2024-03-17T01:25:22;75829.59;;;-148.63;41.69
61528;BME280;47395;42.032;-8.634;2024-03-17T01:27:26;75855.63;;;-148.63;42.11
61528;BME280;47395;42.032;-8.634;2024-03-17T01:29:27;75819.59;;;-148.63;41.73
61528;BME280;47395;42.032;-8.634;2024-03-17T01:31:29;75663.53;;;-148.63;39.57
61528;BME280;47395;42.032;-8.634;2024-03-17T01:33:30;75737.56;;;-148.63;40.50
61528;BME280;47395;42.032;-8.634;2024-03-17T01:35:31;75661.53;;;-148.63;39.84
61528;BME280;47395;42.032;-8.634;2024-03-17T01:37:32;75579.53;;;-148.63;38.70
61528;BME280;47395;42.032;-8.634;2024-03-17T01:39:33;75573.50;;;-148.63;38.49
61528;BME280;47395;42.032;-8.634;2024-03-17T01:41:34;75533.50;;;-148.63;37.91
61528;BME280;47395;42.032;-8.634;2024-03-17T01:43:35;75537.50;;;-148.63;37.99
61528;BME280;47395;42.032;-8.634;2024-03-17T01:45:36;75647.53;;;-148.63;39.01
61528;BME280;47395;42.032;-8.634;2024-03-17T01:47:37;75607.53;;;-148.63;38.77
61528;BME280;47395;42.032;-8.634;2024-03-17T01:49:38;75529.50;;;-148.63;37.71
61528;BME280;47395;42.032;-8.634;2024-03-17T01:51:39;75593.53;;;-148.63;38.30
61528;BME280;47395;42.032;-8.634;2024-03-17T01:53:42;75517.50;;;-148.63;37.74
61528;BME280;47395;42.032;-8.634;2024-03-17T01:55:44;75511.50;;;-148.63;37.73
61528;BME280;47395;42.032;-8.634;2024-03-17T01:57:47;75515.50;;;-148.63;37.68
61528;BME280;47395;42.032;-8.634;2024-03-17T01:59:48;75507.50;;;-148.63;37.38
61528;BME280;47395;42.032;-8.634;2024-03-17T02:01:49;75489.50;;;-148.63;37.16
61528;BME280;47395;42.032;-8.634;2024-03-17T02:03:50;75509.50;;;-148.63;37.37
61528;BME280;47395;42.032;-8.634;2024-03-17T02:05:51;75571.50;;;-148.63;38.19
61528;BME280;47395;42.032;-8.634;2024-03-17T02:07:52;75527.50;;;-148.63;37.85
61528;BME280;47395;42.032;-8.634;2024-03-17T02:09:56;75681.56;;;-148.63;39.16
61528;BME280;47395;42.032;-8.634;2024-03-17T02:11:57;75717.56;;;-148.63;39.73
61528;BME280;47395;42.032;-8.634;2024-03-17T02:13:59;75655.53;;;-148.63;39.24
61528;BME280;47395;42.032;-8.634;2024-03-17T02:16:00;75617.53;;;-148.63;38.99
61528;BME280;47395;42.032;-8.634;2024-03-17T02:18:01;75657.53;;;-148.63;39.35
61528;BME280;47395;42.032;-8.634;2024-03-17T02:20:03;75531.50;;;-148.63;38.06
61528;BME280;47395;42.032;-8.634;2024-03-17T02:22:14;75563.50;;;-148.63;38.14
61528;BME280;47395;42.032;-8.634;2024-03-17T02:24:17;75523.50;;;-148.63;37.57
61528;BME280;47395;42.032;-8.634;2024-03-17T02:26:19;75507.50;;;-148.63;37.33
61528;BME280;47395;42.032;-8.634;2024-03-17T02:28:20;75509.50;;;-148.63;37.21
61528;BME280;47395;42.032;-8.634;2024-03-17T02:30:21;75493.50;;;-148.63;36.88
61528;BME280;47395;42.032;-8.634;2024-03-17T02:32:22;75495.50;;;-148.63;36.86
61528;BME280;47395;42.032;-8.634;2024-03-17T02:34:23;75499.50;;;-148.63;36.73
61528;BME280;47395;42.032;-8.634;2024-03-17T02:36:24;75505.50;;;-148.63;36.97
61528;BME280;47395;42.032;-8.634;2024-03-17T02:38:25;75509.50;;;-148.63;36.75
61528;BME280;47395;42.032;-8.634;2024-03-17T02:40:45;75501.50;;;-148.63;36.77
61528;BME280;47395;42.032;-8.634;2024-03-17T02:42:45;75513.50;;;-148.63;36.53
61528;BME280;47395;42.032;-8.634;2024-03-17T02:44:46;75507.50;;;-148.63;36.80
61528;BME280;47395;42.032;-8.634;2024-03-17T02:46:47;75503.50;;;-148.63;36.60
61528;BME280;47395;42.032;-8.634;2024-03-17T02:48:51;75499.50;;;-148.63;36.59
61528;BME280;47395;42.032;-8.634;2024-03-17T02:50:52;75497.50;;;-148.63;36.44
61528;BME280;47395;42.032;-8.634;2024-03-17T02:52:53;75491.50;;;-148.63;36.74
61528;BME280;47395;42.032;-8.634;2024-03-17T02:54:54;75497.50;;;-148.63;36.71
61528;BME280;47395;42.032;-8.634;2024-03-17T02:56:55;75483.50;;;-148.63;36.67
61528;BME280;47395;42.032;-8.634;2024-03-17T02:58:56;75503.50;;;-148.63;36.68
61528;BME280;47395;42.032;-8.634;2024-03-17T03:00:57;75501.50;;;-148.63;36.58
61528;BME280;47395;42.032;-8.634;2024-03-17T03:02:59;75509.50;;;-148.63;36.58
61528;BME280;47395;42.032;-8.634;2024-03-17T03:04:59;75515.50;;;-148.63;36.60
61528;BME280;47395;42.032;-8.634;2024-03-17T03:07:00;75507.50;;;-148.63;36.65
61528;BME280;47395;42.032;-8.634;2024-03-17T03:09:02;75519.50;;;-148.63;36.51
61528;BME280;47395;42.032;-8.634;2024-03-17T03:11:05;75539.50;;;-148.63;36.93
61528;BME280;47395;42.032;-8.634;2024-03-17T03:13:06;75545.50;;;-148.63;37.05
61528;BME280;47395;42.032;-8.634;2024-03-17T03:15:08;75533.50;;;-148.63;36.82
61528;BME280;47395;42.032;-8.634;2024-03-17T03:17:09;75537.50;;;-148.63;37.13
61528;BME280;47395;42.032;-8.634;2024-03-17T03:19:10;75519.50;;;-148.63;36.80
61528;BME280;47395;42.032;-8.634;2024-03-17T03:21:11;75525.50;;;-148.63;36.93
61528;BME280;47395;42.032;-8.634;2024-03-17T03:23:15;75541.50;;;-148.63;36.79
61528;BME280;47395;42.032;-8.634;2024-03-17T03:25:16;75607.53;;;-148.63;37.61
61528;BME280;47395;42.032;-8.634;2024-03-17T03:27:17;75555.50;;;-148.63;36.91
61528;BME280;47395;42.032;-8.634;2024-03-17T03:29:18;75543.50;;;-148.63;36.97
61528;BME280;47395;42.032;-8.634;2024-03-17T03:31:20;75517.50;;;-148.63;36.92
61528;BME280;47395;42.032;-8.634;2024-03-17T03:33:21;75511.50;;;-148.63;36.91
61528;BME280;47395;42.032;-8.634;2024-03-17T03:35:23;75481.50;;;-148.63;36.66
61528;BME280;47395;42.032;-8.634;2024-03-17T03:37:23;75507.50;;;-148.63;36.92
61528;BME280;47395;42.032;-8.634;2024-03-17T03:39:24;75497.50;;;-148.63;36.50
61528;BME280;47395;42.032;-8.634;2024-03-17T03:41:31;75479.50;;;-148.63;36.43
61528;BME280;47395;42.032;-8.634;2024-03-17T03:43:36;75497.50;;;-148.63;36.62
61528;BME280;47395;42.032;-8.634;2024-03-17T03:45:37;75497.50;;;-148.63;36.55
61528;BME280;47395;42.032;-8.634;2024-03-17T03:47:42;75509.50;;;-148.63;36.84
61528;BME280;47395;42.032;-8.634;2024-03-17T03:49:43;75503.50;;;-148.63;36.92
61528;BME280;47395;42.032;-8.634;2024-03-17T03:51:45;75493.50;;;-148.63;36.64
61528;BME280;47395;42.032;-8.634;2024-03-17T03:53:46;75507.50;;;-148.63;36.73
61528;BME280;47395;42.032;-8.634;2024-03-17T03:55:48;75521.50;;;-148.63;36.75
61528;BME280;47395;42.032;-8.634;2024-03-17T03:57:49;75509.50;;;-148.63;36.86
61528;BME280;47395;42.032;-8.634;2024-03-17T03:59:52;75491.50;;;-148.63;36.61
61528;BME280;47395;42.032;-8.634;2024-03-17T04:01:53;75499.50;;;-148.63;36.68
61528;BME280;47395;42.032;-8.634;2024-03-17T04:03:54;75489.50;;;-148.63;36.56
61528;BME280;47395;42.032;-8.634;2024-03-17T04:06:09;75489.50;;;-148.63;36.61
61528;BME280;47395;42.032;-8.634;2024-03-17T04:08:11;75463.47;;;-148.63;36.39
61528;BME280;47395;42.032;-8.634;2024-03-17T04:10:13;75477.50;;;-148.63;36.47
61528;BME280;47395;42.032;-8.634;2024-03-17T04:12:14;75471.47;;;-148.63;36.28
61528;BME280;47395;42.032;-8.634;2024-03-17T04:14:15;75473.47;;;-148.63;36.15
61528;BME280;47395;42.032;-8.634;2024-03-17T04:16:16;75477.50;;;-148.63;36.50
61528;BME280;47395;42.032;-8.634;2024-03-17T04:18:18;75485.50;;;-148.63;36.39
61528;BME280;47395;42.032;-8.634;2024-03-17T04:20:20;75477.50;;;-148.63;36.51
61528;BME280;47395;42.032;-8.634;2024-03-17T04:22:22;75487.50;;;-148.63;36.75
61528;BME280;47395;42.032;-8.634;2024-03-17T04:24:23;75485.50;;;-148.63;36.55
61528;BME280;47395;42.032;-8.634;2024-03-17T04:26:25;75481.50;;;-148.63;36.55
61528;BME280;47395;42.032;-8.634;2024-03-17T04:28:27;75483.50;;;-148.63;36.61
61528;BME280;47395;42.032;-8.634;2024-03-17T04:30:28;75477.50;;;-148.63;36.58
61528;BME280;47395;42.032;-8.634;2024-03-17T04:32:29;75485.50;;;-148.63;36.71
61528;BME280;47395;42.032;-8.634;2024-03-17T04:34:31;75477.50;;;-148.63;36.80
61528;BME280;47395;42.032;-8.634;2024-03-17T04:36:32;75473.47;;;-148.63;36.55
61528;BME280;47395;42.032;-8.634;2024-03-17T04:38:33;75475.50;;;-148.63;36.55
61528;BME280;47395;42.032;-8.634;2024-03-17T04:40:43;75477.50;;;-148.63;36.42
61528;BME280;47395;42.032;-8.634;2024-03-17T04:42:44;75469.47;;;-148.63;36.47
61528;BME280;47395;42.032;-8.634;2024-03-17T04:44:46;75477.50;;;-148.63;36.64
61528;BME280;47395;42.032;-8.634;2024-03-17T04:46:47;75493.50;;;-148.63;36.50
61528;BME280;47395;42.032;-8.634;2024-03-17T04:48:48;75493.50;;;-148.63;36.55
61528;BME280;47395;42.032;-8.634;2024-03-17T04:50:49;75497.50;;;-148.63;36.61
61528;BME280;47395;42.032;-8.634;2024-03-17T04:52:50;75491.50;;;-148.63;36.56
61528;BME280;47395;42.032;-8.634;2024-03-17T04:54:51;75513.50;;;-148.63;36.75
61528;BME280;47395;42.032;-8.634;2024-03-17T04:56:52;75517.50;;;-148.63;36.79
61528;BME280;47395;42.032;-8.634;2024-03-17T04:58:53;75491.50;;;-148.63;36.80
61528;BME280;47395;42.032;-8.634;2024-03-17T05:00:54;75487.50;;;-148.63;36.75
61528;BME280;47395;42.032;-8.634;2024-03-17T05:05:05;75477.50;;;-148.63;37.10
61528;BME280;47395;42.032;-8.634;2024-03-17T05:07:08;75479.50;;;-148.63;36.88
61528;BME280;47395;42.032;-8.634;2024-03-17T05:09:09;75509.50;;;-148.63;37.36
61528;BME280;47395;42.032;-8.634;2024-03-17T05:11:13;75463.47;;;-148.63;37.06
61528;BME280;47395;42.032;-8.634;2024-03-17T05:13:16;75453.47;;;-148.63;36.69
61528;BME280;47395;42.032;-8.634;2024-03-17T05:15:17;75439.47;;;-148.63;36.71
61528;BME280;47395;42.032;-8.634;2024-03-17T05:17:18;75437.47;;;-148.63;36.69
61528;BME280;47395;42.032;-8.634;2024-03-17T05:19:20;75447.47;;;-148.63;36.72
61528;BME280;47395;42.032;-8.634;2024-03-17T05:21:20;75435.47;;;-148.63;36.51
61528;BME280;47395;42.032;-8.634;2024-03-17T05:23:22;75513.50;;;-148.63;37.03
61528;BME280;47395;42.032;-8.634;2024-03-17T05:25:23;75489.50;;;-148.63;36.77
61528;BME280;47395;42.032;-8.634;2024-03-17T05:27:24;75463.47;;;-148.63;36.62
61528;BME280;47395;42.032;-8.634;2024-03-17T05:29:25;75447.47;;;-148.63;36.32
61528;BME280;47395;42.032;-8.634;2024-03-17T05:31:26;75459.47;;;-148.63;36.48
61528;BME280;47395;42.032;-8.634;2024-03-17T05:33:27;75465.47;;;-148.63;36.48
61528;BME280;47395;42.032;-8.634;2024-03-17T05:35:28;75461.47;;;-148.63;36.12
61528;BME280;47395;42.032;-8.634;2024-03-17T05:37:29;75497.50;;;-148.63;36.46
61528;BME280;47395;42.032;-8.634;2024-03-17T05:39:31;75483.50;;;-148.63;36.42
61528;BME280;47395;42.032;-8.634;2024-03-17T05:41:32;75475.50;;;-148.63;36.27
61528;BME280;47395;42.032;-8.634;2024-03-17T05:43:37;75473.47;;;-148.63;36.10
61528;BME280;47395;42.032;-8.634;2024-03-17T05:45:38;75491.50;;;-148.63;36.23
61528;BME280;47395;42.032;-8.634;2024-03-17T05:47:39;75491.50;;;-148.63;36.25
61528;BME280;47395;42.032;-8.634;2024-03-17T05:49:41;75509.50;;;-148.63;36.14
61528;BME280;47395;42.032;-8.634;2024-03-17T05:51:43;75509.50;;;-148.63;36.36
61528;BME280;47395;42.032;-8.634;2024-03-17T05:53:44;75519.50;;;-148.63;36.41
61528;BME280;47395;42.032;-8.634;2024-03-17T05:55:45;75531.50;;;-148.63;36.18
61528;BME280;47395;42.032;-8.634;2024-03-17T05:57:46;75519.50;;;-148.63;36.11
61528;BME280;47395;42.032;-8.634;2024-03-17T05:59:47;75531.50;;;-148.63;36.17
61528;BME280;47395;42.032;-8.634;2024-03-17T06:01:48;75543.50;;;-148.63;36.07
61528;BME280;47395;42.032;-8.634;2024-03-17T06:03:49;75537.50;;;-148.63;36.23
61528;BME280;47395;42.032;-8.634;2024-03-17T06:05:50;75537.50;;;-148.63;36.07
61528;BME280;47395;42.032;-8.634;2024-03-17T06:07:51;75551.50;;;-148.63;36.46
61528;BME280;47395;42.032;-8.634;2024-03-17T06:09:52;75593.53;;;-148.63;36.80
61528;BME280;47395;42.032;-8.634;2024-03-17T06:11:53;75561.50;;;-148.63;36.58
61528;BME280;47395;42.032;-8.634;2024-03-17T06:13:53;75547.50;;;-148.63;36.41
61528;BME280;47395;42.032;-8.634;2024-03-17T06:15:54;75525.50;;;-148.63;36.20
61528;BME280;47395;42.032;-8.634;2024-03-17T06:18:00;75533.50;;;-148.63;36.40
61528;BME280;47395;42.032;-8.634;2024-03-17T06:20:04;75549.50;;;-148.63;36.23
61528;BME280;47395;42.032;-8.634;2024-03-17T06:22:06;75583.53;;;-148.63;36.61
61528;BME280;47395;42.032;-8.634;2024-03-17T06:24:07;75581.53;;;-148.63;36.58
61528;BME280;47395;42.032;-8.634;2024-03-17T06:26:12;75547.50;;;-148.63;36.25
61528;BME280;47395;42.032;-8.634;2024-03-17T06:28:15;75537.50;;;-148.63;36.04
61528;BME280;47395;42.032;-8.634;2024-03-17T06:30:18;75537.50;;;-148.63;35.97
61528;BME280;47395;42.032;-8.634;2024-03-17T06:32:19;75547.50;;;-148.63;36.05
61528;BME280;47395;42.032;-8.634;2024-03-17T06:34:20;75579.53;;;-148.63;36.38
61528;BME280;47395;42.032;-8.634;2024-03-17T06:36:21;75565.50;;;-148.63;36.22
61528;BME280;47395;42.032;-8.634;2024-03-17T06:38:22;75557.50;;;-148.63;36.21
61528;BME280;47395;42.032;-8.634;2024-03-17T06:40:23;75557.50;;;-148.63;36.19
61528;BME280;47395;42.032;-8.634;2024-03-17T06:42:24;75559.50;;;-148.63;36.25
61528;BME280;47395;42.032;-8.634;2024-03-17T06:44:25;75611.53;;;-148.63;36.66
61528;BME280;47395;42.032;-8.634;2024-03-17T06:46:30;75563.50;;;-148.63;36.26
61528;BME280;47395;42.032;-8.634;2024-03-17T06:48:31;75583.53;;;-148.63;36.46
61528;BME280;47395;42.032;-8.634;2024-03-17T06:50:32;75561.50;;;-148.63;36.17
61528;BME280;47395;42.032;-8.634;2024-03-17T06:52:32;75581.53;;;-148.63;36.58
61528;BME280;47395;42.032;-8.634;2024-03-17T06:54:33;75631.53;;;-148.63;37.34
61528;BME280;47395;42.032;-8.634;2024-03-17T06:56:34;75567.50;;;-148.63;36.66
61528;BME280;47395;42.032;-8.634;2024-03-17T06:58:36;75541.50;;;-148.63;36.35
61528;BME280;47395;42.032;-8.634;2024-03-17T07:00:37;75525.50;;;-148.63;36.33
61528;BME280;47395;42.032;-8.634;2024-03-17T07:02:38;75519.50;;;-148.63;36.28
61528;BME280;47395;42.032;-8.634;2024-03-17T07:04:39;75505.50;;;-148.63;36.03
61528;BME280;47395;42.032;-8.634;2024-03-17T07:06:40;75527.50;;;-148.63;36.38
61528;BME280;47395;42.032;-8.634;2024-03-17T07:08:41;75525.50;;;-148.63;36.34
61528;BME280;47395;42.032;-8.634;2024-03-17T07:10:43;75509.50;;;-148.63;36.27
61528;BME280;47395;42.032;-8.634;2024-03-17T07:12:43;75469.47;;;-148.63;35.92
61528;BME280;47395;42.032;-8.634;2024-03-17T07:14:44;75491.50;;;-148.63;35.96
61528;BME280;47395;42.032;-8.634;2024-03-17T07:16:45;75509.50;;;-148.63;36.10
61528;BME280;47395;42.032;-8.634;2024-03-17T07:18:46;75599.53;;;-148.63;36.53
61528;BME280;47395;42.032;-8.634;2024-03-17T07:20:47;75677.56;;;-148.63;37.01
61528;BME280;47395;42.032;-8.634;2024-03-17T07:22:48;75755.56;;;-148.63;38.09
61528;BME280;47395;42.032;-8.634;2024-03-17T07:24:51;75595.53;;;-148.63;36.79
61528;BME280;47395;42.032;-8.634;2024-03-17T07:26:56;75515.50;;;-148.63;36.31
61528;BME280;47395;42.032;-8.634;2024-03-17T07:28:57;75491.50;;;-148.63;36.03
61528;BME280;47395;42.032;-8.634;2024-03-17T07:30:59;75447.47;;;-148.63;35.66
61528;BME280;47395;42.032;-8.634;2024-03-17T07:33:03;75407.47;;;-148.63;35.37
61528;BME280;47395;42.032;-8.634;2024-03-17T07:35:04;75381.47;;;-148.63;35.32
61528;BME280;47395;42.032;-8.634;2024-03-17T07:37:05;75383.47;;;-148.63;35.13
61528;BME280;47395;42.032;-8.634;2024-03-17T07:39:06;75371.47;;;-148.63;34.94
61528;BME280;47395;42.032;-8.634;2024-03-17T07:41:10;75337.44;;;-148.63;34.96
61528;BME280;47395;42.032;-8.634;2024-03-17T07:43:11;75431.47;;;-148.63;34.97
61528;BME280;47395;42.032;-8.634;2024-03-17T07:45:12;75397.47;;;-148.63;34.80
61528;BME280;47395;42.032;-8.634;2024-03-17T07:47:13;75349.47;;;-148.63;34.68
61528;BME280;47395;42.032;-8.634;2024-03-17T07:49:14;75337.44;;;-148.63;34.25
61528;BME280;47395;42.032;-8.634;2024-03-17T07:51:16;75323.44;;;-148.63;34.08
61528;BME280;47395;42.032;-8.634;2024-03-17T07:53:17;75315.44;;;-148.63;33.92
61528;BME280;47395;42.032;-8.634;2024-03-17T07:55:18;75297.44;;;-148.63;34.19
61528;BME280;47395;42.032;-8.634;2024-03-17T07:57:19;75293.44;;;-148.63;33.92
61528;BME280;47395;42.032;-8.634;2024-03-17T07:59:21;75281.44;;;-148.63;33.84
61528;BME280;47395;42.032;-8.634;2024-03-17T08:01:22;75255.44;;;-148.63;33.92
61528;BME280;47395;42.032;-8.634;2024-03-17T08:03:23;75237.44;;;-148.63;33.35
61528;BME280;47395;42.032;-8.634;2024-03-17T08:05:24;75219.44;;;-148.63;33.29
61528;BME280;47395;42.032;-8.634;2024-03-17T08:07:25;75175.41;;;-148.63;32.90
61528;BME280;47395;42.032;-8.634;2024-03-17T08:09:26;75123.41;;;-148.63;32.89
61528;BME280;47395;42.032;-8.634;2024-03-17T08:11:27;75113.41;;;-148.63;32.66
61528;BME280;47395;42.032;-8.634;2024-03-17T08:13:29;75107.41;;;-148.63;32.30
61528;BME280;47395;42.032;-8.634;2024-03-17T08:15:34;75089.41;;;-148.63;32.55
61528;BME280;47395;42.032;-8.634;2024-03-17T08:17:35;75077.41;;;-148.63;32.53
61528;BME280;47395;42.032;-8.634;2024-03-17T08:19:36;75123.41;;;-148.63;32.69
61528;BME280;47395;42.032;-8.634;2024-03-17T08:21:39;75051.38;;;-148.63;32.31
61528;BME280;47395;42.032;-8.634;2024-03-17T08:23:40;75047.38;;;-148.63;31.96
61528;BME280;47395;42.032;-8.634;2024-03-17T08:25:53;75035.38;;;-148.63;31.84
61528;BME280;47395;42.032;-8.634;2024-03-17T08:27:54;75029.38;;;-148.63;32.07
61528;BME280;47395;42.032;-8.634;2024-03-17T08:29:55;75007.38;;;-148.63;32.08
61528;BME280;47395;42.032;-8.634;2024-03-17T08:31:56;74979.38;;;-148.63;31.90
61528;BME280;47395;42.032;-8.634;2024-03-17T08:33:57;74945.38;;;-148.63;32.04
61528;BME280;47395;42.032;-8.634;2024-03-17T08:36:03;74933.38;;;-148.63;31.71
61528;BME280;47395;42.032;-8.634;2024-03-17T08:38:04;74915.38;;;-148.63;31.94
61528;BME280;47395;42.032;-8.634;2024-03-17T08:40:06;74879.38;;;-148.63;31.66
61528;BME280;47395;42.032;-8.634;2024-03-17T08:42:07;74971.38;;;-148.63;31.80
61528;BME280;47395;42.032;-8.634;2024-03-17T08:44:08;75035.38;;;-148.63;32.33
61528;BME280;47395;42.032;-8.634;2024-03-17T08:46:10;75023.38;;;-148.63;31.90
61528;BME280;47395;42.032;-8.634;2024-03-17T08:48:12;74981.38;;;-148.63;32.06
61528;BME280;47395;42.032;-8.634;2024-03-17T08:50:13;74931.38;;;-148.63;31.86
61528;BME280;47395;42.032;-8.634;2024-03-17T08:52:15;74879.38;;;-148.63;31.37
61528;BME280;47395;42.032;-8.634;2024-03-17T08:54:16;74881.38;;;-148.63;31.33
61528;BME280;47395;42.032;-8.634;2024-03-17T08:56:17;74939.38;;;-148.63;31.97
61528;BME280;47395;42.032;-8.634;2024-03-17T08:58:18;74985.38;;;-148.63;32.08
61528;BME280;47395;42.032;-8.634;2024-03-17T09:00:19;74961.38;;;-148.63;32.43
61528;BME280;47395;42.032;-8.634;2024-03-17T09:02:20;74913.38;;;-148.63;32.15
61528;BME280;47395;42.032;-8.634;2024-03-17T09:04:24;74943.38;;;-148.63;32.17
61528;BME280;47395;42.032;-8.634;2024-03-17T09:06:25;74913.38;;;-148.63;32.22
61528;BME280;47395;42.032;-8.634;2024-03-17T09:08:30;74839.34;;;-148.63;31.74
61528;BME280;47395;42.032;-8.634;2024-03-17T09:10:41;74833.34;;;-148.63;31.80
61528;BME280;47395;42.032;-8.634;2024-03-17T09:12:42;74815.34;;;-148.63;31.46
61528;BME280;47395;42.032;-8.634;2024-03-17T09:14:47;74817.34;;;-148.63;31.76
61528;BME280;47395;42.032;-8.634;2024-03-17T09:16:48;74783.34;;;-148.63;31.48
61528;BME280;47395;42.032;-8.634;2024-03-17T09:18:49;74769.34;;;-148.63;31.67
61528;BME280;47395;42.032;-8.634;2024-03-17T09:21:00;74749.34;;;-148.63;31.31
61528;BME280;47395;42.032;-8.634;2024-03-17T09:23:01;74711.34;;;-148.63;31.38
61528;BME280;47395;42.032;-8.634;2024-03-17T09:25:05;74711.34;;;-148.63;31.11
61528;BME280;47395;42.032;-8.634;2024-03-17T09:27:07;74775.34;;;-148.63;31.54
61528;BME280;47395;42.032;-8.634;2024-03-17T09:29:10;74757.34;;;-148.63;31.30
61528;BME280;47395;42.032;-8.634;2024-03-17T09:31:11;74779.34;;;-148.63;31.80
61528;BME280;47395;42.032;-8.634;2024-03-17T09:33:12;74683.34;;;-148.63;31.38
61528;BME280;47395;42.032;-8.634;2024-03-17T09:35:13;74693.34;;;-148.63;30.97
61528;BME280;47395;42.032;-8.634;2024-03-17T09:37:15;74749.34;;;-148.63;31.84
61528;BME280;47395;42.032;-8.634;2024-03-17T09:39:16;74757.34;;;-148.63;31.51
61528;BME280;47395;42.032;-8.634;2024-03-17T09:41:21;74725.34;;;-148.63;31.80
61528;BME280;47395;42.032;-8.634;2024-03-17T09:43:23;74771.34;;;-148.63;31.83
61528;BME280;47395;42.032;-8.634;2024-03-17T09:45:26;74721.34;;;-148.63;31.94
61528;BME280;47395;42.032;-8.634;2024-03-17T09:47:29;74749.34;;;-148.63;31.99
61528;BME280;47395;42.032;-8.634;2024-03-17T09:49:31;74713.34;;;-148.63;31.87
61528;BME280;47395;42.032;-8.634;2024-03-17T09:51:32;74775.34;;;-148.63;32.60
61528;BME280;47395;42.032;-8.634;2024-03-17T09:53:34;74795.34;;;-148.63;32.22
61528;BME280;47395;42.032;-8.634;2024-03-17T09:55:35;74789.34;;;-148.63;32.76
61528;BME280;47395;42.032;-8.634;2024-03-17T09:57:36;74797.34;;;-148.63;32.54
61528;BME280;47395;42.032;-8.634;2024-03-17T09:59:37;74761.34;;;-148.63;32.48
61528;BME280;47395;42.032;-8.634;2024-03-17T10:01:38;74629.34;;;-148.63;31.05
61528;BME280;47395;42.032;-8.634;2024-03-17T10:03:50;74639.34;;;-148.63;31.31
61528;BME280;47395;42.032;-8.634;2024-03-17T10:06:00;74717.34;;;-148.63;31.69
61528;BME280;47395;42.032;-8.634;2024-03-17T10:08:01;74653.34;;;-148.63;31.38
61528;BME280;47395;42.032;-8.634;2024-03-17T10:10:12;74645.34;;;-148.63;31.55
61528;BME280;47395;42.032;-8.634;2024-03-17T10:12:27;74587.34;;;-148.63;31.36
61528;BME280;47395;42.032;-8.634;2024-03-17T10:14:28;74555.34;;;-148.63;30.62
61528;BME280;47395;42.032;-8.634;2024-03-17T10:16:31;74523.34;;;-148.63;30.96
61528;BME280;47395;42.032;-8.634;2024-03-17T10:18:32;74421.31;;;-148.63;29.90
61528;BME280;47395;42.032;-8.634;2024-03-17T10:20:34;74501.34;;;-148.63;30.72
61528;BME280;47395;42.032;-8.634;2024-03-17T10:22:34;74385.31;;;-148.63;30.07